sensor_id;sensor_type;location;lat;lon;timestamp;pressure;altitude;pressure_sealevel;temperature;humidity
10732;BME280;5417;42.686;23.244;2023-08-20T00:01:56;94518.09;;;24.29;nan
10732;BME280;5417;42.686;23.244;2023-08-20T00:04:26;94499.44;;;24.22;nan
10732;BME280;5417;42.686;23.244;2023-08-20T00:06:56;94499.66;;;24.21;nan
10732;BME280;5417;42.686;23.244;2023-08-20T00:09:23;94503.75;;;24.17;nan
10732;BME280;5417;42.686;23.244;2023-08-20T00:11:54;94509.91;;;24.11;nan
10732;BME280;5417;42.686;23.244;2023-08-20T00:14:52;94502.31;;;24.14;nan
10732;BME280;5417;42.686;23.244;2023-08-20T00:17:27;94503.34;;;24.13;nan
10732;BME280;5417;42.686;23.244;2023-08-20T00:19:55;94499.47;;;24.16;nan
10732;BME280;5417;42.686;23.244;2023-08-20T00:22:25;94501.91;;;24.11;nan
10732;BME280;5417;42.686;23.244;2023-08-20T00:24:53;94507.03;;;24.06;nan
10732;BME280;5417;42.686;23.244;2023-08-20T00:27:20;94512.34;;;24.12;nan
10732;BME280;5417;42.686;23.244;2023-08-20T00:29:47;94513.56;;;24.16;nan
10732;BME280;5417;42.686;23.244;2023-08-20T00:32:14;94509.06;;;24.17;nan
10732;BME280;5417;42.686;23.244;2023-08-20T00:34:42;94507.84;;;24.26;nan
10732;BME280;5417;42.686;23.244;2023-08-20T00:37:09;94508.06;;;24.18;nan
10732;BME280;5417;42.686;23.244;2023-08-20T00:39:39;94510.09;;;24.09;nan
10732;BME280;5417;42.686;23.244;2023-08-20T00:42:06;94500.91;;;24.12;nan
10732;BME280;5417;42.686;23.244;2023-08-20T00:44:35;94508.88;;;24.12;nan
10732;BME280;5417;42.686;23.244;2023-08-20T00:47:04;94507.66;;;24.08;nan
10732;BME280;5417;42.686;23.244;2023-08-20T00:49:31;94501.72;;;23.99;nan
10732;BME280;5417;42.686;23.244;2023-08-20T00:51:59;94509.09;;;23.97;nan
10732;BME280;5417;42.686;23.244;2023-08-20T00:54:27;94516.84;;;23.99;nan
10732;BME280;5417;42.686;23.244;2023-08-20T00:56:56;94503.97;;;24.02;nan
10732;BME280;5417;42.686;23.244;2023-08-20T00:59:23;94499.69;;;24.01;nan
10732;BME280;5417;42.686;23.244;2023-08-20T01:01:50;94503.56;;;23.99;nan
10732;BME280;5417;42.686;23.244;2023-08-20T01:04:17;94503.97;;;23.96;nan
10732;BME280;5417;42.686;23.244;2023-08-20T01:06:53;94502.94;;;23.97;nan
10732;BME280;5417;42.686;23.244;2023-08-20T01:09:29;94503.34;;;23.94;nan
10732;BME280;5417;42.686;23.244;2023-08-20T01:12:03;94510.06;;;23.89;nan
10732;BME280;5417;42.686;23.244;2023-08-20T01:14:30;94500.06;;;23.91;nan
10732;BME280;5417;42.686;23.244;2023-08-20T01:16:57;94499.66;;;23.88;nan
10732;BME280;5417;42.686;23.244;2023-08-20T01:19:24;94508.44;;;23.88;nan
10732;BME280;5417;42.686;23.244;2023-08-20T01:22:06;94498.84;;;24.01;nan
10732;BME280;5417;42.686;23.244;2023-08-20T01:24:44;94493.94;;;23.98;nan
10732;BME280;5417;42.686;23.244;2023-08-20T01:27:48;94499.88;;;24.00;nan
10732;BME280;5417;42.686;23.244;2023-08-20T01:30:20;94500.88;;;23.92;nan
10732;BME280;5417;42.686;23.244;2023-08-20T01:32:49;94503.34;;;23.94;nan
10732;BME280;5417;42.686;23.244;2023-08-20T01:35:19;94488.00;;;23.89;nan
10732;BME280;5417;42.686;23.244;2023-08-20T01:37:46;94497.03;;;23.95;nan
10732;BME280;5417;42.686;23.244;2023-08-20T01:40:19;94494.34;;;24.01;nan
10732;BME280;5417;42.686;23.244;2023-08-20T01:42:46;94497.44;;;24.05;nan
10732;BME280;5417;42.686;23.244;2023-08-20T01:45:13;94489.03;;;24.01;nan
10732;BME280;5417;42.686;23.244;2023-08-20T01:47:41;94494.75;;;23.91;nan
10732;BME280;5417;42.686;23.244;2023-08-20T01:50:09;94492.09;;;23.91;nan
10732;BME280;5417;42.686;23.244;2023-08-20T01:52:36;94484.50;;;23.88;nan
10732;BME280;5417;42.686;23.244;2023-08-20T01:55:04;94484.50;;;23.88;nan
10732;BME280;5417;42.686;23.244;2023-08-20T01:57:31;94490.66;;;23.89;nan
10732;BME280;5417;42.686;23.244;2023-08-20T01:59:58;94488.63;;;23.98;nan
10732;BME280;5417;42.686;23.244;2023-08-20T02:02:25;94490.25;;;23.85;nan
10732;BME280;5417;42.686;23.244;2023-08-20T02:04:54;94484.31;;;23.77;nan
10732;BME280;5417;42.686;23.244;2023-08-20T02:07:21;94472.44;;;23.73;nan
10732;BME280;5417;42.686;23.244;2023-08-20T02:09:47;94476.75;;;23.74;nan
10732;BME280;5417;42.686;23.244;2023-08-20T02:12:15;94468.78;;;23.74;nan
10732;BME280;5417;42.686;23.244;2023-08-20T02:14:41;94470.19;;;23.70;nan
10732;BME280;5417;42.686;23.244;2023-08-20T02:17:08;94471.84;;;23.71;nan
10732;BME280;5417;42.686;23.244;2023-08-20T02:19:37;94471.22;;;23.62;nan
10732;BME280;5417;42.686;23.244;2023-08-20T02:22:06;94464.22;;;23.54;nan
10732;BME280;5417;42.686;23.244;2023-08-20T02:24:33;94482.66;;;23.56;nan
10732;BME280;5417;42.686;23.244;2023-08-20T02:27:00;94475.25;;;23.45;nan
10732;BME280;5417;42.686;23.244;2023-08-20T02:29:26;94487.50;;;23.46;nan
10732;BME280;5417;42.686;23.244;2023-08-20T02:31:53;94484.84;;;23.46;nan
10732;BME280;5417;42.686;23.244;2023-08-20T02:34:20;94476.66;;;23.41;nan
10732;BME280;5417;42.686;23.244;2023-08-20T02:36:47;94476.44;;;23.36;nan
10732;BME280;5417;42.686;23.244;2023-08-20T02:39:16;94473.38;;;23.39;nan
10732;BME280;5417;42.686;23.244;2023-08-20T02:41:43;94482.75;;;23.35;nan
10732;BME280;5417;42.686;23.244;2023-08-20T02:44:10;94482.38;;;23.38;nan
10732;BME280;5417;42.686;23.244;2023-08-20T02:46:39;94485.81;;;23.32;nan
10732;BME280;5417;42.686;23.244;2023-08-20T02:49:07;94496.44;;;23.25;nan
10732;BME280;5417;42.686;23.244;2023-08-20T02:51:35;94490.28;;;23.18;nan
10732;BME280;5417;42.686;23.244;2023-08-20T02:54:02;94500.09;;;23.17;nan
10732;BME280;5417;42.686;23.244;2023-08-20T02:56:30;94491.09;;;23.12;nan
10732;BME280;5417;42.686;23.244;2023-08-20T02:58:57;94495.16;;;23.08;nan
10732;BME280;5417;42.686;23.244;2023-08-20T03:01:26;94491.69;;;23.07;nan
10732;BME280;5417;42.686;23.244;2023-08-20T03:03:53;94499.03;;;23.05;nan
10732;BME280;5417;42.686;23.244;2023-08-20T03:06:20;94493.69;;;22.98;nan
10732;BME280;5417;42.686;23.244;2023-08-20T03:08:47;94496.78;;;23.02;nan
10732;BME280;5417;42.686;23.244;2023-08-20T03:11:13;94501.66;;;22.98;nan
10732;BME280;5417;42.686;23.244;2023-08-20T03:13:42;94504.53;;;22.97;nan
10732;BME280;5417;42.686;23.244;2023-08-20T03:16:09;94485.47;;;22.87;nan
10732;BME280;5417;42.686;23.244;2023-08-20T03:18:36;94498.38;;;22.90;nan
10732;BME280;5417;42.686;23.244;2023-08-20T03:21:03;94495.25;;;22.86;nan
10732;BME280;5417;42.686;23.244;2023-08-20T03:23:30;94494.22;;;22.81;nan
10732;BME280;5417;42.686;23.244;2023-08-20T03:25:58;94493.00;;;22.83;nan
10732;BME280;5417;42.686;23.244;2023-08-20T03:28:25;94495.41;;;22.78;nan
10732;BME280;5417;42.686;23.244;2023-08-20T03:30:54;94498.25;;;22.77;nan
10732;BME280;5417;42.686;23.244;2023-08-20T03:33:23;94480.84;;;22.67;nan
10732;BME280;5417;42.686;23.244;2023-08-20T03:35:50;94489.63;;;22.68;nan
10732;BME280;5417;42.686;23.244;2023-08-20T03:38:17;94495.34;;;22.65;nan
10732;BME280;5417;42.686;23.244;2023-08-20T03:40:46;94489.41;;;22.63;nan
10732;BME280;5417;42.686;23.244;2023-08-20T03:43:13;94482.03;;;22.58;nan
10732;BME280;5417;42.686;23.244;2023-08-20T03:45:41;94484.25;;;22.55;nan
10732;BME280;5417;42.686;23.244;2023-08-20T03:48:09;94485.31;;;22.60;nan
10732;BME280;5417;42.686;23.244;2023-08-20T03:50:36;94483.44;;;22.54;nan
10732;BME280;5417;42.686;23.244;2023-08-20T03:53:03;94479.53;;;22.50;nan
10732;BME280;5417;42.686;23.244;2023-08-20T03:55:30;94480.38;;;22.51;nan
10732;BME280;5417;42.686;23.244;2023-08-20T03:57:58;94479.53;;;22.50;nan
10732;BME280;5417;42.686;23.244;2023-08-20T04:00:25;94473.41;;;22.50;nan
10732;BME280;5417;42.686;23.244;2023-08-20T04:02:52;94479.34;;;22.52;nan
10732;BME280;5417;42.686;23.244;2023-08-20T04:05:21;94471.41;;;22.52;nan
10732;BME280;5417;42.686;23.244;2023-08-20T04:07:48;94477.13;;;22.55;nan
10732;BME280;5417;42.686;23.244;2023-08-20T04:10:15;94480.41;;;22.57;nan
10732;BME280;5417;42.686;23.244;2023-08-20T04:12:42;94469.41;;;22.60;nan
10732;BME280;5417;42.686;23.244;2023-08-20T04:15:09;94479.63;;;22.70;nan
10732;BME280;5417;42.686;23.244;2023-08-20T04:17:37;94478.84;;;22.76;nan
10732;BME280;5417;42.686;23.244;2023-08-20T04:20:06;94483.88;;;22.92;nan
10732;BME280;5417;42.686;23.244;2023-08-20T04:22:36;94476.59;;;23.21;nan
10732;BME280;5417;42.686;23.244;2023-08-20T04:25:07;94476.53;;;23.62;nan
10732;BME280;5417;42.686;23.244;2023-08-20T04:27:34;94481.66;;;24.10;nan
10732;BME280;5417;42.686;23.244;2023-08-20T04:30:01;94478.94;;;24.69;nan
10732;BME280;5417;42.686;23.244;2023-08-20T04:32:29;94467.78;;;25.43;nan
10732;BME280;5417;42.686;23.244;2023-08-20T04:34:56;94477.38;;;26.14;nan
10732;BME280;5417;42.686;23.244;2023-08-20T04:37:23;94481.22;;;26.86;nan
10732;BME280;5417;42.686;23.244;2023-08-20T04:39:51;94485.06;;;27.57;nan
10732;BME280;5417;42.686;23.244;2023-08-20T04:42:18;94477.94;;;28.11;nan
10732;BME280;5417;42.686;23.244;2023-08-20T04:44:45;94481.00;;;28.49;nan
10732;BME280;5417;42.686;23.244;2023-08-20T04:47:13;94472.38;;;28.94;nan
10732;BME280;5417;42.686;23.244;2023-08-20T04:49:43;94472.06;;;29.31;nan
10732;BME280;5417;42.686;23.244;2023-08-20T04:52:10;94476.38;;;29.60;nan
10732;BME280;5417;42.686;23.244;2023-08-20T04:54:37;94475.72;;;29.98;nan
10732;BME280;5417;42.686;23.244;2023-08-20T04:57:05;94472.63;;;30.35;nan
10732;BME280;5417;42.686;23.244;2023-08-20T04:59:32;94479.94;;;30.73;nan
10732;BME280;5417;42.686;23.244;2023-08-20T05:02:02;94476.09;;;30.69;nan
10732;BME280;5417;42.686;23.244;2023-08-20T05:04:28;94472.50;;;30.80;nan
10732;BME280;5417;42.686;23.244;2023-08-20T05:06:55;94472.94;;;30.94;nan
10732;BME280;5417;42.686;23.244;2023-08-20T05:09:22;94478.09;;;30.95;nan
10732;BME280;5417;42.686;23.244;2023-08-20T05:11:49;94462.75;;;30.96;nan
10732;BME280;5417;42.686;23.244;2023-08-20T05:14:21;94481.00;;;30.94;nan
10732;BME280;5417;42.686;23.244;2023-08-20T05:16:48;94465.34;;;30.52;nan
10732;BME280;5417;42.686;23.244;2023-08-20T05:19:15;94468.75;;;29.97;nan
10732;BME280;5417;42.686;23.244;2023-08-20T05:21:42;94483.44;;;30.23;nan
10732;BME280;5417;42.686;23.244;2023-08-20T05:24:09;94481.72;;;30.51;nan
10732;BME280;5417;42.686;23.244;2023-08-20T05:26:38;94478.00;;;30.90;nan
10732;BME280;5417;42.686;23.244;2023-08-20T05:29:05;94480.09;;;31.05;nan
10732;BME280;5417;42.686;23.244;2023-08-20T05:31:33;94484.31;;;31.18;nan
10732;BME280;5417;42.686;23.244;2023-08-20T05:34:00;94476.63;;;31.26;nan
10732;BME280;5417;42.686;23.244;2023-08-20T05:36:27;94488.78;;;31.56;nan
10732;BME280;5417;42.686;23.244;2023-08-20T05:38:54;94495.44;;;31.70;nan
10732;BME280;5417;42.686;23.244;2023-08-20T05:41:22;94496.06;;;31.55;nan
10732;BME280;5417;42.686;23.244;2023-08-20T05:43:49;94482.16;;;31.63;nan
10732;BME280;5417;42.686;23.244;2023-08-20T05:46:16;94464.16;;;31.91;nan
10732;BME280;5417;42.686;23.244;2023-08-20T05:48:44;94491.09;;;32.23;nan
10732;BME280;5417;42.686;23.244;2023-08-20T05:51:11;94488.75;;;32.63;nan
10732;BME280;5417;42.686;23.244;2023-08-20T05:53:38;94496.31;;;32.67;nan
10732;BME280;5417;42.686;23.244;2023-08-20T05:56:05;94506.13;;;32.78;nan
10732;BME280;5417;42.686;23.244;2023-08-20T05:58:32;94500.06;;;32.98;nan
10732;BME280;5417;42.686;23.244;2023-08-20T06:00:59;94489.38;;;33.23;nan
10732;BME280;5417;42.686;23.244;2023-08-20T06:03:26;94486.97;;;33.26;nan
10732;BME280;5417;42.686;23.244;2023-08-20T06:06:03;94492.47;;;33.42;nan
10732;BME280;5417;42.686;23.244;2023-08-20T06:08:31;94497.63;;;33.48;nan
10732;BME280;5417;42.686;23.244;2023-08-20T06:11:01;94472.34;;;33.12;nan
10732;BME280;5417;42.686;23.244;2023-08-20T06:13:28;94495.88;;;33.27;nan
10732;BME280;5417;42.686;23.244;2023-08-20T06:15:57;94499.47;;;33.38;nan
10732;BME280;5417;42.686;23.244;2023-08-20T06:18:24;94498.78;;;33.15;nan
10732;BME280;5417;42.686;23.244;2023-08-20T06:20:51;94494.16;;;33.06;nan
10732;BME280;5417;42.686;23.244;2023-08-20T06:23:22;94498.16;;;32.98;nan
10732;BME280;5417;42.686;23.244;2023-08-20T06:25:50;94498.63;;;32.85;nan
10732;BME280;5417;42.686;23.244;2023-08-20T06:28:19;94510.22;;;32.80;nan
10732;BME280;5417;42.686;23.244;2023-08-20T06:30:46;94505.75;;;32.69;nan
10732;BME280;5417;42.686;23.244;2023-08-20T06:33:13;94507.34;;;32.65;nan
10732;BME280;5417;42.686;23.244;2023-08-20T06:35:43;94495.94;;;32.53;nan
10732;BME280;5417;42.686;23.244;2023-08-20T06:38:10;94507.03;;;32.56;nan
10732;BME280;5417;42.686;23.244;2023-08-20T06:40:40;94506.56;;;32.70;nan
10732;BME280;5417;42.686;23.244;2023-08-20T06:43:07;94501.19;;;32.70;nan
10732;BME280;5417;42.686;23.244;2023-08-20T06:45:34;94498.66;;;32.53;nan
10732;BME280;5417;42.686;23.244;2023-08-20T06:48:01;94509.84;;;32.35;nan
10732;BME280;5417;42.686;23.244;2023-08-20T06:50:28;94508.72;;;32.30;nan
10732;BME280;5417;42.686;23.244;2023-08-20T06:52:55;94498.09;;;32.24;nan
10732;BME280;5417;42.686;23.244;2023-08-20T06:55:21;94491.19;;;32.01;nan
10732;BME280;5417;42.686;23.244;2023-08-20T06:57:50;94503.75;;;32.22;nan
10732;BME280;5417;42.686;23.244;2023-08-20T07:00:17;94506.28;;;32.29;nan
10732;BME280;5417;42.686;23.244;2023-08-20T07:02:45;94506.44;;;32.22;nan
10732;BME280;5417;42.686;23.244;2023-08-20T07:05:12;94491.94;;;31.96;nan
10732;BME280;5417;42.686;23.244;2023-08-20T07:07:40;94507.44;;;32.11;nan
10732;BME280;5417;42.686;23.244;2023-08-20T07:10:07;94496.06;;;32.04;nan
10732;BME280;5417;42.686;23.244;2023-08-20T07:12:34;94515.41;;;32.01;nan
10732;BME280;5417;42.686;23.244;2023-08-20T07:15:03;94508.69;;;32.04;nan
10732;BME280;5417;42.686;23.244;2023-08-20T07:17:30;94509.69;;;31.92;nan
10732;BME280;5417;42.686;23.244;2023-08-20T07:20:00;94492.16;;;31.68;nan
10732;BME280;5417;42.686;23.244;2023-08-20T07:22:28;94518.84;;;31.48;nan
10732;BME280;5417;42.686;23.244;2023-08-20T07:24:58;94497.03;;;31.22;nan
10732;BME280;5417;42.686;23.244;2023-08-20T07:27:25;94506.50;;;31.52;nan
10732;BME280;5417;42.686;23.244;2023-08-20T07:29:52;94499.97;;;31.69;nan
10732;BME280;5417;42.686;23.244;2023-08-20T07:32:23;94505.00;;;31.83;nan
10732;BME280;5417;42.686;23.244;2023-08-20T07:34:50;94502.53;;;31.76;nan
10732;BME280;5417;42.686;23.244;2023-08-20T07:37:17;94504.88;;;31.73;nan
10732;BME280;5417;42.686;23.244;2023-08-20T07:39:44;94495.09;;;31.66;nan
10732;BME280;5417;42.686;23.244;2023-08-20T07:42:11;94509.28;;;31.79;nan
10732;BME280;5417;42.686;23.244;2023-08-20T07:44:38;94502.44;;;31.71;nan
10732;BME280;5417;42.686;23.244;2023-08-20T07:47:08;94510.63;;;31.59;nan
10732;BME280;5417;42.686;23.244;2023-08-20T07:49:37;94505.81;;;31.61;nan
10732;BME280;5417;42.686;23.244;2023-08-20T07:52:04;94498.53;;;31.62;nan
10732;BME280;5417;42.686;23.244;2023-08-20T07:54:31;94511.88;;;31.74;nan
10732;BME280;5417;42.686;23.244;2023-08-20T07:56:58;94515.44;;;31.57;nan
10732;BME280;5417;42.686;23.244;2023-08-20T07:59:25;94517.78;;;31.49;nan
10732;BME280;5417;42.686;23.244;2023-08-20T08:01:53;94514.91;;;31.33;nan
10732;BME280;5417;42.686;23.244;2023-08-20T08:04:20;94500.25;;;31.46;nan
10732;BME280;5417;42.686;23.244;2023-08-20T08:06:51;94501.28;;;31.67;nan
10732;BME280;5417;42.686;23.244;2023-08-20T08:09:19;94497.41;;;31.75;nan
10732;BME280;5417;42.686;23.244;2023-08-20T08:11:50;94491.59;;;31.66;nan
10732;BME280;5417;42.686;23.244;2023-08-20T08:14:17;94508.16;;;31.75;nan
10732;BME280;5417;42.686;23.244;2023-08-20T08:16:47;94500.47;;;31.66;nan
10732;BME280;5417;42.686;23.244;2023-08-20T08:19:14;94503.59;;;31.75;nan
10732;BME280;5417;42.686;23.244;2023-08-20T08:21:42;94498.84;;;31.65;nan
10732;BME280;5417;42.686;23.244;2023-08-20T08:24:11;94501.38;;;31.72;nan
10732;BME280;5417;42.686;23.244;2023-08-20T08:26:38;94504.19;;;31.82;nan
10732;BME280;5417;42.686;23.244;2023-08-20T08:29:06;94503.09;;;31.78;nan
10732;BME280;5417;42.686;23.244;2023-08-20T08:31:34;94509.88;;;31.86;nan
10732;BME280;5417;42.686;23.244;2023-08-20T08:34:03;94504.19;;;31.82;nan
10732;BME280;5417;42.686;23.244;2023-08-20T08:36:30;94500.19;;;31.85;nan
10732;BME280;5417;42.686;23.244;2023-08-20T08:38:57;94506.50;;;31.74;nan
10732;BME280;5417;42.686;23.244;2023-08-20T08:41:28;94504.50;;;31.64;nan
10732;BME280;5417;42.686;23.244;2023-08-20T08:43:57;94517.78;;;31.70;nan
10732;BME280;5417;42.686;23.244;2023-08-20T08:46:25;94502.59;;;31.64;nan
10732;BME280;5417;42.686;23.244;2023-08-20T08:48:52;94510.69;;;31.64;nan
10732;BME280;5417;42.686;23.244;2023-08-20T08:51:21;94508.00;;;31.64;nan
10732;BME280;5417;42.686;23.244;2023-08-20T08:53:48;94506.94;;;31.65;nan
10732;BME280;5417;42.686;23.244;2023-08-20T08:56:15;94515.81;;;31.66;nan
10732;BME280;5417;42.686;23.244;2023-08-20T08:58:43;94506.41;;;31.68;nan
10732;BME280;5417;42.686;23.244;2023-08-20T09:01:13;94500.22;;;31.68;nan
10732;BME280;5417;42.686;23.244;2023-08-20T09:03:40;94514.56;;;31.74;nan
10732;BME280;5417;42.686;23.244;2023-08-20T09:06:12;94513.84;;;31.78;nan
10732;BME280;5417;42.686;23.244;2023-08-20T09:08:39;94502.66;;;31.69;nan
10732;BME280;5417;42.686;23.244;2023-08-20T09:11:06;94511.16;;;31.78;nan
10732;BME280;5417;42.686;23.244;2023-08-20T09:13:39;94508.25;;;31.63;nan
10732;BME280;5417;42.686;23.244;2023-08-20T09:16:10;94505.13;;;31.49;nan
10732;BME280;5417;42.686;23.244;2023-08-20T09:18:38;94502.25;;;31.56;nan
10732;BME280;5417;42.686;23.244;2023-08-20T09:21:07;94500.69;;;31.60;nan
10732;BME280;5417;42.686;23.244;2023-08-20T09:23:35;94498.53;;;31.62;nan
10732;BME280;5417;42.686;23.244;2023-08-20T09:26:03;94509.44;;;31.72;nan
10732;BME280;5417;42.686;23.244;2023-08-20T09:28:44;94498.59;;;31.67;nan
10732;BME280;5417;42.686;23.244;2023-08-20T09:31:15;94512.06;;;31.67;nan
10732;BME280;5417;42.686;23.244;2023-08-20T09:33:51;94499.63;;;31.61;nan
10732;BME280;5417;42.686;23.244;2023-08-20T09:36:18;94509.09;;;31.68;nan
10732;BME280;5417;42.686;23.244;2023-08-20T09:38:45;94514.59;;;31.52;nan
10732;BME280;5417;42.686;23.244;2023-08-20T09:41:13;94486.19;;;31.39;nan
10732;BME280;5417;42.686;23.244;2023-08-20T09:43:41;94478.94;;;31.39;nan
10732;BME280;5417;42.686;23.244;2023-08-20T09:46:16;94496.63;;;31.57;nan
10732;BME280;5417;42.686;23.244;2023-08-20T09:48:51;94499.56;;;31.56;nan
10732;BME280;5417;42.686;23.244;2023-08-20T09:51:27;94497.94;;;31.55;nan
10732;BME280;5417;42.686;23.244;2023-08-20T09:54:00;94494.28;;;31.66;nan
10732;BME280;5417;42.686;23.244;2023-08-20T09:56:29;94487.28;;;31.65;nan
10732;BME280;5417;42.686;23.244;2023-08-20T09:58:57;94488.34;;;31.64;nan
10732;BME280;5417;42.686;23.244;2023-08-20T10:01:29;94487.22;;;31.60;nan
10732;BME280;5417;42.686;23.244;2023-08-20T10:03:57;94480.53;;;31.62;nan
10732;BME280;5417;42.686;23.244;2023-08-20T10:06:24;94495.09;;;31.66;nan
10732;BME280;5417;42.686;23.244;2023-08-20T10:08:53;94489.72;;;31.66;nan
10732;BME280;5417;42.686;23.244;2023-08-20T10:11:20;94477.53;;;31.59;nan
10732;BME280;5417;42.686;23.244;2023-08-20T10:13:47;94466.31;;;31.67;nan
10732;BME280;5417;42.686;23.244;2023-08-20T10:16:17;94483.13;;;31.74;nan
10732;BME280;5417;42.686;23.244;2023-08-20T10:18:48;94493.28;;;31.72;nan
10732;BME280;5417;42.686;23.244;2023-08-20T10:21:15;94492.16;;;31.68;nan
10732;BME280;5417;42.686;23.244;2023-08-20T10:23:48;94490.53;;;31.67;nan
10732;BME280;5417;42.686;23.244;2023-08-20T10:26:15;94480.25;;;31.64;nan
10732;BME280;5417;42.686;23.244;2023-08-20T10:28:44;94488.97;;;31.71;nan
10732;BME280;5417;42.686;23.244;2023-08-20T10:31:12;94481.13;;;31.69;nan
10732;BME280;5417;42.686;23.244;2023-08-20T10:33:50;94454.38;;;31.58;nan
10732;BME280;5417;42.686;23.244;2023-08-20T10:36:22;94470.78;;;31.78;nan
10732;BME280;5417;42.686;23.244;2023-08-20T10:38:53;94474.28;;;31.79;nan
10732;BME280;5417;42.686;23.244;2023-08-20T10:41:24;94494.53;;;31.86;nan
10732;BME280;5417;42.686;23.244;2023-08-20T10:43:52;94479.09;;;31.77;nan
10732;BME280;5417;42.686;23.244;2023-08-20T10:46:20;94481.09;;;31.86;nan
10732;BME280;5417;42.686;23.244;2023-08-20T10:48:51;94472.75;;;31.88;nan
10732;BME280;5417;42.686;23.244;2023-08-20T10:51:19;94464.75;;;31.71;nan
10732;BME280;5417;42.686;23.244;2023-08-20T10:54:04;94473.56;;;31.66;nan
10732;BME280;5417;42.686;23.244;2023-08-20T10:56:39;94461.72;;;31.67;nan
10732;BME280;5417;42.686;23.244;2023-08-20T10:59:07;94459.94;;;31.73;nan
10732;BME280;5417;42.686;23.244;2023-08-20T11:01:34;94467.63;;;31.86;nan
10732;BME280;5417;42.686;23.244;2023-08-20T11:04:04;94459.94;;;31.73;nan
10732;BME280;5417;42.686;23.244;2023-08-20T11:06:33;94436.84;;;31.77;nan
10732;BME280;5417;42.686;23.244;2023-08-20T11:09:01;94453.19;;;31.97;nan
10732;BME280;5417;42.686;23.244;2023-08-20T11:11:29;94462.03;;;31.93;nan
10732;BME280;5417;42.686;23.244;2023-08-20T11:13:57;94444.97;;;31.82;nan
10732;BME280;5417;42.686;23.244;2023-08-20T11:16:24;94449.53;;;31.82;nan
10732;BME280;5417;42.686;23.244;2023-08-20T11:18:52;94460.53;;;31.75;nan
10732;BME280;5417;42.686;23.244;2023-08-20T11:21:21;94439.84;;;31.81;nan
10732;BME280;5417;42.686;23.244;2023-08-20T11:23:48;94439.06;;;31.85;nan
10732;BME280;5417;42.686;23.244;2023-08-20T11:26:16;94438.25;;;31.85;nan
10732;BME280;5417;42.686;23.244;2023-08-20T11:28:45;94431.72;;;31.76;nan
10732;BME280;5417;42.686;23.244;2023-08-20T11:31:12;94438.22;;;31.80;nan
10732;BME280;5417;42.686;23.244;2023-08-20T11:33:39;94431.59;;;31.92;nan
10732;BME280;5417;42.686;23.244;2023-08-20T11:36:07;94430.09;;;31.75;nan
10732;BME280;5417;42.686;23.244;2023-08-20T11:38:35;94451.94;;;31.78;nan
10732;BME280;5417;42.686;23.244;2023-08-20T11:41:02;94436.34;;;31.80;nan
10732;BME280;5417;42.686;23.244;2023-08-20T11:43:29;94440.66;;;31.81;nan
10732;BME280;5417;42.686;23.244;2023-08-20T11:45:56;94420.88;;;31.70;nan
10732;BME280;5417;42.686;23.244;2023-08-20T11:48:23;94440.66;;;31.81;nan
10732;BME280;5417;42.686;23.244;2023-08-20T11:50:50;94429.06;;;31.81;nan
10732;BME280;5417;42.686;23.244;2023-08-20T11:53:21;94431.81;;;31.86;nan
10732;BME280;5417;42.686;23.244;2023-08-20T11:55:50;94424.50;;;31.81;nan
10732;BME280;5417;42.686;23.244;2023-08-20T11:58:18;94428.38;;;31.68;nan
10732;BME280;5417;42.686;23.244;2023-08-20T12:00:49;94423.91;;;31.74;nan
10732;BME280;5417;42.686;23.244;2023-08-20T12:03:18;94417.75;;;31.79;nan
10732;BME280;5417;42.686;23.244;2023-08-20T12:05:45;94414.81;;;31.80;nan
10732;BME280;5417;42.686;23.244;2023-08-20T12:08:15;94417.28;;;31.87;nan
10732;BME280;5417;42.686;23.244;2023-08-20T12:10:43;94414.97;;;32.00;nan
10732;BME280;5417;42.686;23.244;2023-08-20T12:13:12;94410.38;;;32.01;nan
10732;BME280;5417;42.686;23.244;2023-08-20T12:15:39;94413.09;;;32.01;nan
10732;BME280;5417;42.686;23.244;2023-08-20T12:18:06;94416.97;;;31.83;nan
10732;BME280;5417;42.686;23.244;2023-08-20T12:20:35;94403.34;;;31.68;nan
10732;BME280;5417;42.686;23.244;2023-08-20T12:23:03;94402.53;;;31.67;nan
10732;BME280;5417;42.686;23.244;2023-08-20T12:25:32;94401.84;;;31.77;nan
10732;BME280;5417;42.686;23.244;2023-08-20T12:28:01;94406.44;;;31.77;nan
10732;BME280;5417;42.686;23.244;2023-08-20T12:30:30;94399.34;;;31.70;nan
10732;BME280;5417;42.686;23.244;2023-08-20T12:32:57;94383.13;;;31.65;nan
10732;BME280;5417;42.686;23.244;2023-08-20T12:35:24;94387.03;;;31.75;nan
10732;BME280;5417;42.686;23.244;2023-08-20T12:37:51;94402.13;;;31.76;nan
10732;BME280;5417;42.686;23.244;2023-08-20T12:40:18;94399.69;;;31.74;nan
10732;BME280;5417;42.686;23.244;2023-08-20T12:42:45;94405.97;;;31.85;nan
10732;BME280;5417;42.686;23.244;2023-08-20T12:45:12;94394.06;;;31.81;nan
10732;BME280;5417;42.686;23.244;2023-08-20T12:47:40;94401.06;;;31.55;nan
10732;BME280;5417;42.686;23.244;2023-08-20T12:50:08;94410.66;;;31.46;nan
10732;BME280;5417;42.686;23.244;2023-08-20T12:52:36;94396.03;;;31.36;nan
10732;BME280;5417;42.686;23.244;2023-08-20T12:55:03;94397.38;;;31.34;nan
10732;BME280;5417;42.686;23.244;2023-08-20T12:57:34;94393.31;;;31.31;nan
10732;BME280;5417;42.686;23.244;2023-08-20T13:00:02;94389.34;;;31.39;nan
10732;BME280;5417;42.686;23.244;2023-08-20T13:02:33;94385.13;;;31.48;nan
10732;BME280;5417;42.686;23.244;2023-08-20T13:05:02;94387.34;;;31.56;nan
10732;BME280;5417;42.686;23.244;2023-08-20T13:07:31;94389.47;;;31.54;nan
10732;BME280;5417;42.686;23.244;2023-08-20T13:09:58;94397.72;;;31.43;nan
10732;BME280;5417;42.686;23.244;2023-08-20T13:12:27;94389.59;;;31.37;nan
10732;BME280;5417;42.686;23.244;2023-08-20T13:14:54;94386.97;;;31.43;nan
10732;BME280;5417;42.686;23.244;2023-08-20T13:17:22;94366.75;;;31.40;nan
10732;BME280;5417;42.686;23.244;2023-08-20T13:19:49;94376.03;;;31.54;nan
10732;BME280;5417;42.686;23.244;2023-08-20T13:22:17;94376.44;;;31.41;nan
10732;BME280;5417;42.686;23.244;2023-08-20T13:24:47;94391.00;;;31.45;nan
10732;BME280;5417;42.686;23.244;2023-08-20T13:27:14;94364.84;;;31.35;nan
10732;BME280;5417;42.686;23.244;2023-08-20T13:29:41;94382.44;;;31.48;nan